sensor_id;sensor_type;location;lat;lon;timestamp;P1;durP1;ratioP1;P2;durP2;ratioP2
46084;SDS011;31823;47.032;8.310;2022-07-29T00:00:42;9.20;;;5.50;;
46084;SDS011;31823;47.032;8.310;2022-07-29T00:03:11;12.93;;;5.13;;
46084;SDS011;31823;47.032;8.310;2022-07-29T00:05:40;12.02;;;6.20;;
46084;SDS011;31823;47.032;8.310;2022-07-29T00:08:09;6.90;;;5.18;;
46084;SDS011;31823;47.032;8.310;2022-07-29T00:10:35;8.95;;;5.20;;
46084;SDS011;31823;47.032;8.310;2022-07-29T00:13:01;12.40;;;6.68;;
46084;SDS011;31823;47.032;8.310;2022-07-29T00:15:27;16.55;;;5.85;;
46084;SDS011;31823;47.032;8.310;2022-07-29T00:17:53;7.68;;;6.03;;
46084;SDS011;31823;47.032;8.310;2022-07-29T00:20:19;9.82;;;6.63;;
46084;SDS011;31823;47.032;8.310;2022-07-29T00:22:45;7.20;;;6.28;;
46084;SDS011;31823;47.032;8.310;2022-07-29T00:25:11;11.00;;;6.93;;
46084;SDS011;31823;47.032;8.310;2022-07-29T00:27:37;12.00;;;7.55;;
46084;SDS011;31823;47.032;8.310;2022-07-29T00:30:03;7.47;;;6.47;;
46084;SDS011;31823;47.032;8.310;2022-07-29T00:32:30;9.57;;;7.00;;
46084;SDS011;31823;47.032;8.310;2022-07-29T00:34:56;11.23;;;6.85;;
46084;SDS011;31823;47.032;8.310;2022-07-29T00:37:40;9.00;;;6.55;;
46084;SDS011;31823;47.032;8.310;2022-07-29T00:40:09;8.82;;;6.40;;
46084;SDS011;31823;47.032;8.310;2022-07-29T00:42:44;11.77;;;6.15;;
46084;SDS011;31823;47.032;8.310;2022-07-29T00:45:12;12.55;;;6.35;;
46084;SDS011;31823;47.032;8.310;2022-07-29T00:47:38;8.32;;;5.93;;
46084;SDS011;31823;47.032;8.310;2022-07-29T00:50:05;8.77;;;6.70;;
46084;SDS011;31823;47.032;8.310;2022-07-29T00:52:32;9.73;;;6.22;;
46084;SDS011;31823;47.032;8.310;2022-07-29T00:55:00;12.68;;;6.30;;
46084;SDS011;31823;47.032;8.310;2022-07-29T00:57:27;10.00;;;6.90;;
46084;SDS011;31823;47.032;8.310;2022-07-29T00:59:53;11.38;;;6.25;;
46084;SDS011;31823;47.032;8.310;2022-07-29T01:02:19;10.88;;;6.43;;
46084;SDS011;31823;47.032;8.310;2022-07-29T01:04:44;10.48;;;6.65;;
46084;SDS011;31823;47.032;8.310;2022-07-29T01:07:10;8.75;;;6.18;;
46084;SDS011;31823;47.032;8.310;2022-07-29T01:09:36;8.70;;;6.85;;
46084;SDS011;31823;47.032;8.310;2022-07-29T01:12:03;8.70;;;6.43;;
46084;SDS011;31823;47.032;8.310;2022-07-29T01:14:30;7.65;;;6.88;;
46084;SDS011;31823;47.032;8.310;2022-07-29T01:17:05;11.65;;;7.47;;
46084;SDS011;31823;47.032;8.310;2022-07-29T01:30:24;9.18;;;7.15;;
46084;SDS011;31823;47.032;8.310;2022-07-29T01:32:54;8.60;;;7.18;;
46084;SDS011;31823;47.032;8.310;2022-07-29T01:35:25;7.38;;;6.60;;
46084;SDS011;31823;47.032;8.310;2022-07-29T01:43:09;10.27;;;6.28;;
46084;SDS011;31823;47.032;8.310;2022-07-29T01:45:41;10.77;;;6.35;;
46084;SDS011;31823;47.032;8.310;2022-07-29T01:48:19;8.05;;;6.03;;
46084;SDS011;31823;47.032;8.310;2022-07-29T01:50:49;8.20;;;7.05;;
46084;SDS011;31823;47.032;8.310;2022-07-29T01:53:34;12.88;;;6.60;;
46084;SDS011;31823;47.032;8.310;2022-07-29T01:56:07;9.27;;;6.07;;
46084;SDS011;31823;47.032;8.310;2022-07-29T01:58:35;7.55;;;6.30;;
46084;SDS011;31823;47.032;8.310;2022-07-29T02:01:22;11.90;;;6.50;;
46084;SDS011;31823;47.032;8.310;2022-07-29T02:03:50;11.90;;;7.05;;
46084;SDS011;31823;47.032;8.310;2022-07-29T02:06:19;10.18;;;7.38;;
46084;SDS011;31823;47.032;8.310;2022-07-29T02:08:47;12.50;;;7.18;;
46084;SDS011;31823;47.032;8.310;2022-07-29T02:11:15;11.30;;;6.97;;
46084;SDS011;31823;47.032;8.310;2022-07-29T02:13:41;10.82;;;7.40;;
46084;SDS011;31823;47.032;8.310;2022-07-29T02:16:08;9.15;;;7.38;;
46084;SDS011;31823;47.032;8.310;2022-07-29T02:18:39;9.77;;;7.32;;
46084;SDS011;31823;47.032;8.310;2022-07-29T02:21:06;8.98;;;7.38;;
46084;SDS011;31823;47.032;8.310;2022-07-29T02:23:34;8.30;;;7.20;;
46084;SDS011;31823;47.032;8.310;2022-07-29T02:26:02;9.98;;;8.30;;
46084;SDS011;31823;47.032;8.310;2022-07-29T02:28:28;13.82;;;7.68;;
46084;SDS011;31823;47.032;8.310;2022-07-29T02:30:57;12.65;;;7.82;;
46084;SDS011;31823;47.032;8.310;2022-07-29T02:33:25;8.05;;;7.10;;
46084;SDS011;31823;47.032;8.310;2022-07-29T02:35:52;9.95;;;7.28;;
46084;SDS011;31823;47.032;8.310;2022-07-29T02:38:20;11.02;;;7.22;;
46084;SDS011;31823;47.032;8.310;2022-07-29T02:41:08;8.57;;;7.20;;
46084;SDS011;31823;47.032;8.310;2022-07-29T02:43:36;7.88;;;7.05;;
46084;SDS011;31823;47.032;8.310;2022-07-29T02:46:05;10.95;;;7.38;;
46084;SDS011;31823;47.032;8.310;2022-07-29T02:48:41;10.32;;;7.07;;
46084;SDS011;31823;47.032;8.310;2022-07-29T02:51:17;10.38;;;6.88;;
46084;SDS011;31823;47.032;8.310;2022-07-29T02:53:49;8.05;;;7.00;;
46084;SDS011;31823;47.032;8.310;2022-07-29T02:56:18;10.77;;;7.43;;
46084;SDS011;31823;47.032;8.310;2022-07-29T02:58:53;9.98;;;7.20;;
46084;SDS011;31823;47.032;8.310;2022-07-29T03:01:22;11.20;;;7.43;;
46084;SDS011;31823;47.032;8.310;2022-07-29T03:03:51;10.10;;;7.53;;
46084;SDS011;31823;47.032;8.310;2022-07-29T03:06:19;7.47;;;6.35;;
46084;SDS011;31823;47.032;8.310;2022-07-29T03:08:47;12.35;;;7.68;;
46084;SDS011;31823;47.032;8.310;2022-07-29T03:11:13;10.18;;;7.22;;
46084;SDS011;31823;47.032;8.310;2022-07-29T03:13:41;8.13;;;7.28;;
46084;SDS011;31823;47.032;8.310;2022-07-29T03:16:08;9.40;;;7.05;;
46084;SDS011;31823;47.032;8.310;2022-07-29T03:18:34;10.57;;;8.25;;
46084;SDS011;31823;47.032;8.310;2022-07-29T03:21:01;11.98;;;7.32;;
46084;SDS011;31823;47.032;8.310;2022-07-29T03:23:28;10.38;;;7.45;;
46084;SDS011;31823;47.032;8.310;2022-07-29T03:25:54;9.80;;;8.02;;
46084;SDS011;31823;47.032;8.310;2022-07-29T03:28:20;13.77;;;7.82;;
46084;SDS011;31823;47.032;8.310;2022-07-29T03:30:46;13.93;;;7.68;;
46084;SDS011;31823;47.032;8.310;2022-07-29T03:33:12;10.20;;;8.02;;
46084;SDS011;31823;47.032;8.310;2022-07-29T03:35:38;9.00;;;7.47;;
46084;SDS011;31823;47.032;8.310;2022-07-29T03:38:04;9.77;;;7.43;;
46084;SDS011;31823;47.032;8.310;2022-07-29T03:40:31;8.35;;;7.55;;
46084;SDS011;31823;47.032;8.310;2022-07-29T03:43:19;10.48;;;8.23;;
46084;SDS011;31823;47.032;8.310;2022-07-29T03:45:48;11.05;;;7.60;;
46084;SDS011;31823;47.032;8.310;2022-07-29T03:48:18;11.60;;;8.00;;
46084;SDS011;31823;47.032;8.310;2022-07-29T03:50:46;16.27;;;8.50;;
46084;SDS011;31823;47.032;8.310;2022-07-29T03:53:13;12.25;;;7.60;;
46084;SDS011;31823;47.032;8.310;2022-07-29T03:55:42;12.05;;;8.10;;
46084;SDS011;31823;47.032;8.310;2022-07-29T03:58:13;12.57;;;8.07;;
46084;SDS011;31823;47.032;8.310;2022-07-29T04:00:39;9.38;;;8.10;;
46084;SDS011;31823;47.032;8.310;2022-07-29T04:03:06;11.73;;;8.05;;
46084;SDS011;31823;47.032;8.310;2022-07-29T04:05:33;14.43;;;8.40;;
46084;SDS011;31823;47.032;8.310;2022-07-29T04:07:59;8.52;;;7.53;;
46084;SDS011;31823;47.032;8.310;2022-07-29T04:10:24;14.48;;;7.90;;
46084;SDS011;31823;47.032;8.310;2022-07-29T04:12:50;10.43;;;7.63;;
46084;SDS011;31823;47.032;8.310;2022-07-29T04:15:16;8.68;;;7.82;;
46084;SDS011;31823;47.032;8.310;2022-07-29T04:17:42;10.68;;;7.88;;
46084;SDS011;31823;47.032;8.310;2022-07-29T04:20:08;8.63;;;7.43;;
46084;SDS011;31823;47.032;8.310;2022-07-29T04:22:35;12.05;;;7.22;;
46084;SDS011;31823;47.032;8.310;2022-07-29T04:25:00;14.27;;;7.57;;
46084;SDS011;31823;47.032;8.310;2022-07-29T04:27:26;10.43;;;8.05;;
46084;SDS011;31823;47.032;8.310;2022-07-29T04:29:52;10.02;;;8.52;;
46084;SDS011;31823;47.032;8.310;2022-07-29T04:32:17;13.75;;;7.97;;
46084;SDS011;31823;47.032;8.310;2022-07-29T04:34:43;12.85;;;7.88;;
46084;SDS011;31823;47.032;8.310;2022-07-29T04:37:11;8.98;;;6.95;;
46084;SDS011;31823;47.032;8.310;2022-07-29T04:39:37;12.40;;;7.22;;
46084;SDS011;31823;47.032;8.310;2022-07-29T04:42:03;12.30;;;7.30;;
46084;SDS011;31823;47.032;8.310;2022-07-29T04:44:29;15.45;;;7.47;;
46084;SDS011;31823;47.032;8.310;2022-07-29T04:46:55;11.00;;;8.15;;
46084;SDS011;31823;47.032;8.310;2022-07-29T04:49:21;17.52;;;7.97;;
46084;SDS011;31823;47.032;8.310;2022-07-29T04:51:47;8.82;;;7.20;;
46084;SDS011;31823;47.032;8.310;2022-07-29T04:54:12;8.45;;;7.50;;
46084;SDS011;31823;47.032;8.310;2022-07-29T04:56:38;10.05;;;7.30;;
46084;SDS011;31823;47.032;8.310;2022-07-29T04:59:04;10.20;;;7.32;;
46084;SDS011;31823;47.032;8.310;2022-07-29T05:01:29;15.52;;;7.72;;
46084;SDS011;31823;47.032;8.310;2022-07-29T05:03:55;8.07;;;7.15;;
46084;SDS011;31823;47.032;8.310;2022-07-29T05:06:20;9.25;;;7.85;;
46084;SDS011;31823;47.032;8.310;2022-07-29T05:08:46;7.95;;;7.15;;
46084;SDS011;31823;47.032;8.310;2022-07-29T05:11:12;11.55;;;8.05;;
46084;SDS011;31823;47.032;8.310;2022-07-29T05:13:38;8.98;;;7.63;;
46084;SDS011;31823;47.032;8.310;2022-07-29T05:16:04;10.35;;;7.72;;
46084;SDS011;31823;47.032;8.310;2022-07-29T05:18:30;9.90;;;7.53;;
46084;SDS011;31823;47.032;8.310;2022-07-29T05:20:55;9.00;;;8.10;;
46084;SDS011;31823;47.032;8.310;2022-07-29T05:23:21;9.32;;;7.25;;
46084;SDS011;31823;47.032;8.310;2022-07-29T05:25:47;10.48;;;7.38;;
46084;SDS011;31823;47.032;8.310;2022-07-29T05:28:13;12.23;;;7.70;;
46084;SDS011;31823;47.032;8.310;2022-07-29T05:30:38;8.20;;;7.35;;
46084;SDS011;31823;47.032;8.310;2022-07-29T05:33:04;11.27;;;7.47;;
46084;SDS011;31823;47.032;8.310;2022-07-29T05:35:30;10.27;;;6.90;;
46084;SDS011;31823;47.032;8.310;2022-07-29T05:37:55;9.10;;;6.47;;
46084;SDS011;31823;47.032;8.310;2022-07-29T05:40:21;9.77;;;7.32;;
46084;SDS011;31823;47.032;8.310;2022-07-29T05:42:47;10.27;;;8.07;;
46084;SDS011;31823;47.032;8.310;2022-07-29T05:45:12;11.13;;;7.47;;
46084;SDS011;31823;47.032;8.310;2022-07-29T05:47:38;11.80;;;7.45;;
46084;SDS011;31823;47.032;8.310;2022-07-29T05:50:04;10.93;;;7.68;;
46084;SDS011;31823;47.032;8.310;2022-07-29T05:52:30;14.32;;;7.50;;
46084;SDS011;31823;47.032;8.310;2022-07-29T05:54:55;11.77;;;7.90;;
46084;SDS011;31823;47.032;8.310;2022-07-29T05:57:22;8.98;;;7.00;;
46084;SDS011;31823;47.032;8.310;2022-07-29T05:59:49;11.73;;;7.50;;
46084;SDS011;31823;47.032;8.310;2022-07-29T06:02:15;9.05;;;7.43;;
46084;SDS011;31823;47.032;8.310;2022-07-29T06:04:41;10.32;;;7.53;;
46084;SDS011;31823;47.032;8.310;2022-07-29T06:07:07;9.02;;;7.75;;
46084;SDS011;31823;47.032;8.310;2022-07-29T06:09:33;11.68;;;8.35;;
46084;SDS011;31823;47.032;8.310;2022-07-29T06:12:00;11.07;;;7.85;;
46084;SDS011;31823;47.032;8.310;2022-07-29T06:14:26;9.70;;;6.50;;
46084;SDS011;31823;47.032;8.310;2022-07-29T06:16:53;6.65;;;5.95;;
46084;SDS011;31823;47.032;8.310;2022-07-29T06:19:19;6.00;;;5.35;;
46084;SDS011;31823;47.032;8.310;2022-07-29T06:21:45;8.77;;;6.10;;
46084;SDS011;31823;47.032;8.310;2022-07-29T06:24:12;7.63;;;6.35;;
46084;SDS011;31823;47.032;8.310;2022-07-29T06:26:38;7.85;;;6.15;;
46084;SDS011;31823;47.032;8.310;2022-07-29T06:29:05;7.90;;;7.10;;
46084;SDS011;31823;47.032;8.310;2022-07-29T06:31:31;8.40;;;6.40;;
46084;SDS011;31823;47.032;8.310;2022-07-29T06:33:57;11.48;;;7.53;;
46084;SDS011;31823;47.032;8.310;2022-07-29T06:36:22;10.32;;;7.60;;
46084;SDS011;31823;47.032;8.310;2022-07-29T06:38:48;12.80;;;8.68;;
46084;SDS011;31823;47.032;8.310;2022-07-29T06:41:14;10.43;;;8.73;;
46084;SDS011;31823;47.032;8.310;2022-07-29T06:43:41;11.10;;;7.50;;
46084;SDS011;31823;47.032;8.310;2022-07-29T06:46:10;10.00;;;7.57;;
46084;SDS011;31823;47.032;8.310;2022-07-29T06:48:38;12.38;;;7.47;;
46084;SDS011;31823;47.032;8.310;2022-07-29T06:51:05;13.80;;;9.45;;
46084;SDS011;31823;47.032;8.310;2022-07-29T06:53:32;12.13;;;9.77;;
46084;SDS011;31823;47.032;8.310;2022-07-29T06:56:02;9.07;;;7.93;;
46084;SDS011;31823;47.032;8.310;2022-07-29T06:58:28;10.75;;;7.88;;
46084;SDS011;31823;47.032;8.310;2022-07-29T07:00:55;11.45;;;8.52;;
46084;SDS011;31823;47.032;8.310;2022-07-29T07:03:22;13.05;;;8.70;;
46084;SDS011;31823;47.032;8.310;2022-07-29T07:05:48;9.82;;;8.80;;
46084;SDS011;31823;47.032;8.310;2022-07-29T07:08:14;12.38;;;8.50;;
46084;SDS011;31823;47.032;8.310;2022-07-29T07:10:41;9.68;;;8.68;;
46084;SDS011;31823;47.032;8.310;2022-07-29T07:13:07;12.18;;;8.75;;
46084;SDS011;31823;47.032;8.310;2022-07-29T07:15:33;10.30;;;8.57;;
46084;SDS011;31823;47.032;8.310;2022-07-29T07:18:00;11.85;;;8.93;;
46084;SDS011;31823;47.032;8.310;2022-07-29T07:20:26;14.30;;;9.27;;
46084;SDS011;31823;47.032;8.310;2022-07-29T07:22:51;15.23;;;9.85;;
46084;SDS011;31823;47.032;8.310;2022-07-29T07:25:17;13.18;;;9.98;;
46084;SDS011;31823;47.032;8.310;2022-07-29T07:27:43;14.65;;;9.38;;
46084;SDS011;31823;47.032;8.310;2022-07-29T07:30:10;9.98;;;8.82;;
46084;SDS011;31823;47.032;8.310;2022-07-29T07:32:36;14.95;;;10.27;;
46084;SDS011;31823;47.032;8.310;2022-07-29T07:35:05;10.50;;;9.13;;
46084;SDS011;31823;47.032;8.310;2022-07-29T07:37:32;13.70;;;8.63;;
46084;SDS011;31823;47.032;8.310;2022-07-29T07:39:58;9.85;;;8.60;;
46084;SDS011;31823;47.032;8.310;2022-07-29T07:42:24;17.35;;;9.48;;
46084;SDS011;31823;47.032;8.310;2022-07-29T07:44:50;10.10;;;9.07;;
46084;SDS011;31823;47.032;8.310;2022-07-29T07:47:16;17.50;;;9.43;;
46084;SDS011;31823;47.032;8.310;2022-07-29T07:49:48;10.25;;;9.15;;
46084;SDS011;31823;47.032;8.310;2022-07-29T07:52:16;12.10;;;9.50;;
46084;SDS011;31823;47.032;8.310;2022-07-29T07:54:43;9.38;;;8.38;;
46084;SDS011;31823;47.032;8.310;2022-07-29T07:57:09;11.82;;;8.00;;
46084;SDS011;31823;47.032;8.310;2022-07-29T07:59:36;9.82;;;8.55;;
46084;SDS011;31823;47.032;8.310;2022-07-29T08:02:03;9.98;;;8.55;;
46084;SDS011;31823;47.032;8.310;2022-07-29T08:04:29;8.63;;;7.82;;
46084;SDS011;31823;47.032;8.310;2022-07-29T08:06:55;11.27;;;8.50;;
46084;SDS011;31823;47.032;8.310;2022-07-29T08:09:22;10.82;;;8.00;;
46084;SDS011;31823;47.032;8.310;2022-07-29T08:11:48;9.35;;;8.30;;
46084;SDS011;31823;47.032;8.310;2022-07-29T08:14:14;8.95;;;8.05;;
46084;SDS011;31823;47.032;8.310;2022-07-29T08:16:40;8.52;;;7.68;;
46084;SDS011;31823;47.032;8.310;2022-07-29T08:19:07;9.13;;;7.25;;
46084;SDS011;31823;47.032;8.310;2022-07-29T08:21:32;8.75;;;7.20;;
46084;SDS011;31823;47.032;8.310;2022-07-29T08:23:58;8.18;;;7.20;;
46084;SDS011;31823;47.032;8.310;2022-07-29T08:26:49;12.32;;;7.75;;
46084;SDS011;31823;47.032;8.310;2022-07-29T08:29:15;8.10;;;7.30;;
46084;SDS011;31823;47.032;8.310;2022-07-29T08:31:41;7.88;;;6.95;;
46084;SDS011;31823;47.032;8.310;2022-07-29T08:34:07;8.27;;;6.25;;
46084;SDS011;31823;47.032;8.310;2022-07-29T08:36:33;8.75;;;6.07;;
46084;SDS011;31823;47.032;8.310;2022-07-29T08:39:00;7.07;;;6.00;;
46084;SDS011;31823;47.032;8.310;2022-07-29T08:41:26;9.40;;;5.88;;
46084;SDS011;31823;47.032;8.310;2022-07-29T08:43:52;7.45;;;5.70;;
46084;SDS011;31823;47.032;8.310;2022-07-29T08:46:18;7.30;;;6.20;;
46084;SDS011;31823;47.032;8.310;2022-07-29T08:48:45;9.68;;;6.35;;
46084;SDS011;31823;47.032;8.310;2022-07-29T08:51:15;8.23;;;6.65;;
46084;SDS011;31823;47.032;8.310;2022-07-29T08:53:46;6.90;;;5.97;;
46084;SDS011;31823;47.032;8.310;2022-07-29T08:56:16;10.10;;;5.90;;
46084;SDS011;31823;47.032;8.310;2022-07-29T08:58:43;6.97;;;5.80;;
46084;SDS011;31823;47.032;8.310;2022-07-29T09:01:15;6.35;;;5.70;;
46084;SDS011;31823;47.032;8.310;2022-07-29T09:03:46;9.05;;;6.07;;
46084;SDS011;31823;47.032;8.310;2022-07-29T09:06:14;9.95;;;5.90;;
46084;SDS011;31823;47.032;8.310;2022-07-29T09:08:41;9.30;;;6.00;;
46084;SDS011;31823;47.032;8.310;2022-07-29T09:11:07;6.63;;;5.25;;
46084;SDS011;31823;47.032;8.310;2022-07-29T09:13:33;7.28;;;5.57;;
46084;SDS011;31823;47.032;8.310;2022-07-29T09:15:59;6.63;;;6.00;;
46084;SDS011;31823;47.032;8.310;2022-07-29T09:18:38;6.13;;;5.35;;
46084;SDS011;31823;47.032;8.310;2022-07-29T09:21:06;9.73;;;5.20;;
46084;SDS011;31823;47.032;8.310;2022-07-29T09:24:03;8.02;;;5.60;;
46084;SDS011;31823;47.032;8.310;2022-07-29T09:26:32;7.45;;;5.03;;
46084;SDS011;31823;47.032;8.310;2022-07-29T09:28:59;6.10;;;4.68;;
46084;SDS011;31823;47.032;8.310;2022-07-29T09:31:35;8.73;;;5.18;;
46084;SDS011;31823;47.032;8.310;2022-07-29T09:34:04;6.05;;;5.32;;
46084;SDS011;31823;47.032;8.310;2022-07-29T09:36:30;6.47;;;5.28;;
46084;SDS011;31823;47.032;8.310;2022-07-29T09:38:59;7.40;;;5.32;;
46084;SDS011;31823;47.032;8.310;2022-07-29T09:41:26;7.15;;;5.90;;
46084;SDS011;31823;47.032;8.310;2022-07-29T09:43:55;6.18;;;5.57;;
46084;SDS011;31823;47.032;8.310;2022-07-29T09:46:22;6.75;;;5.95;;
46084;SDS011;31823;47.032;8.310;2022-07-29T09:51:34;6.55;;;4.97;;
46084;SDS011;31823;47.032;8.310;2022-07-29T09:54:00;4.82;;;4.43;;
46084;SDS011;31823;47.032;8.310;2022-07-29T09:56:41;5.85;;;4.72;;
46084;SDS011;31823;47.032;8.310;2022-07-29T09:59:08;5.18;;;4.30;;
46084;SDS011;31823;47.032;8.310;2022-07-29T10:01:36;4.35;;;3.95;;
46084;SDS011;31823;47.032;8.310;2022-07-29T10:04:02;5.53;;;4.30;;
46084;SDS011;31823;47.032;8.310;2022-07-29T10:06:28;5.38;;;4.40;;
46084;SDS011;31823;47.032;8.310;2022-07-29T10:08:54;7.25;;;4.65;;
46084;SDS011;31823;47.032;8.310;2022-07-29T10:11:20;4.88;;;4.30;;
46084;SDS011;31823;47.032;8.310;2022-07-29T10:13:47;5.82;;;4.22;;
46084;SDS011;31823;47.032;8.310;2022-07-29T10:16:13;7.50;;;4.40;;
46084;SDS011;31823;47.032;8.310;2022-07-29T10:18:41;4.35;;;3.97;;
46084;SDS011;31823;47.032;8.310;2022-07-29T10:21:08;4.40;;;4.00;;
46084;SDS011;31823;47.032;8.310;2022-07-29T10:23:35;5.13;;;4.53;;
46084;SDS011;31823;47.032;8.310;2022-07-29T10:26:02;5.45;;;4.85;;
46084;SDS011;31823;47.032;8.310;2022-07-29T10:28:29;6.55;;;5.00;;
46084;SDS011;31823;47.032;8.310;2022-07-29T10:30:59;5.25;;;4.60;;
46084;SDS011;31823;47.032;8.310;2022-07-29T10:44:41;6.15;;;5.10;;
46084;SDS011;31823;47.032;8.310;2022-07-29T10:47:07;7.00;;;5.43;;
46084;SDS011;31823;47.032;8.310;2022-07-29T10:49:54;6.32;;;5.60;;
46084;SDS011;31823;47.032;8.310;2022-07-29T10:52:24;6.32;;;5.72;;
46084;SDS011;31823;47.032;8.310;2022-07-29T10:55:35;7.50;;;6.05;;
46084;SDS011;31823;47.032;8.310;2022-07-29T10:58:20;11.52;;;6.10;;
46084;SDS011;31823;47.032;8.310;2022-07-29T11:00:51;7.53;;;6.72;;
46084;SDS011;31823;47.032;8.310;2022-07-29T11:06:10;7.70;;;6.90;;
46084;SDS011;31823;47.032;8.310;2022-07-29T11:08:36;8.02;;;7.22;;
46084;SDS011;31823;47.032;8.310;2022-07-29T11:16:15;10.10;;;9.10;;
46084;SDS011;31823;47.032;8.310;2022-07-29T11:21:40;12.63;;;8.73;;
46084;SDS011;31823;47.032;8.310;2022-07-29T11:24:13;10.57;;;8.98;;
46084;SDS011;31823;47.032;8.310;2022-07-29T11:26:41;10.50;;;9.18;;
46084;SDS011;31823;47.032;8.310;2022-07-29T11:29:17;11.25;;;8.90;;
46084;SDS011;31823;47.032;8.310;2022-07-29T11:31:48;11.15;;;8.77;;
46084;SDS011;31823;47.032;8.310;2022-07-29T11:44:56;8.88;;;7.97;;
46084;SDS011;31823;47.032;8.310;2022-07-29T11:47:24;9.60;;;7.82;;
46084;SDS011;31823;47.032;8.310;2022-07-29T11:49:51;10.95;;;8.60;;
46084;SDS011;31823;47.032;8.310;2022-07-29T11:52:17;10.13;;;8.63;;
46084;SDS011;31823;47.032;8.310;2022-07-29T11:54:44;11.90;;;8.80;;
46084;SDS011;31823;47.032;8.310;2022-07-29T11:57:14;10.63;;;9.45;;
46084;SDS011;31823;47.032;8.310;2022-07-29T11:59:43;9.25;;;8.35;;
46084;SDS011;31823;47.032;8.310;2022-07-29T12:02:10;9.90;;;8.23;;
46084;SDS011;31823;47.032;8.310;2022-07-29T12:04:49;10.32;;;8.35;;
46084;SDS011;31823;47.032;8.310;2022-07-29T12:07:16;10.13;;;8.77;;
46084;SDS011;31823;47.032;8.310;2022-07-29T12:09:51;10.77;;;8.50;;
46084;SDS011;31823;47.032;8.310;2022-07-29T12:14:44;10.65;;;9.50;;
46084;SDS011;31823;47.032;8.310;2022-07-29T12:17:34;11.02;;;9.48;;
46084;SDS011;31823;47.032;8.310;2022-07-29T12:20:00;11.63;;;10.32;;
46084;SDS011;31823;47.032;8.310;2022-07-29T12:25:00;12.77;;;10.23;;
46084;SDS011;31823;47.032;8.310;2022-07-29T12:27:27;16.05;;;10.32;;
46084;SDS011;31823;47.032;8.310;2022-07-29T12:30:00;12.95;;;10.63;;
46084;SDS011;31823;47.032;8.310;2022-07-29T12:32:35;11.73;;;9.63;;
46084;SDS011;31823;47.032;8.310;2022-07-29T12:35:12;11.88;;;9.32;;
46084;SDS011;31823;47.032;8.310;2022-07-29T12:37:44;10.60;;;9.50;;
46084;SDS011;31823;47.032;8.310;2022-07-29T12:40:12;11.68;;;8.75;;
46084;SDS011;31823;47.032;8.310;2022-07-29T12:42:41;10.23;;;7.32;;
46084;SDS011;31823;47.032;8.310;2022-07-29T12:45:29;6.72;;;5.93;;
46084;SDS011;31823;47.032;8.310;2022-07-29T12:47:56;10.60;;;6.60;;
46084;SDS011;31823;47.032;8.310;2022-07-29T12:50:21;9.98;;;8.30;;
46084;SDS011;31823;47.032;8.310;2022-07-29T12:52:47;10.95;;;7.03;;
46084;SDS011;31823;47.032;8.310;2022-07-29T12:55:13;8.68;;;6.70;;
46084;SDS011;31823;47.032;8.310;2022-07-29T12:57:46;7.90;;;6.90;;
46084;SDS011;31823;47.032;8.310;2022-07-29T13:00:14;9.25;;;6.63;;
46084;SDS011;31823;47.032;8.310;2022-07-29T13:02:41;9.07;;;6.85;;
46084;SDS011;31823;47.032;8.310;2022-07-29T13:05:08;8.82;;;7.18;;
46084;SDS011;31823;47.032;8.310;2022-07-29T13:07:36;9.95;;;7.15;;
46084;SDS011;31823;47.032;8.310;2022-07-29T13:10:16;13.98;;;7.57;;
46084;SDS011;31823;47.032;8.310;2022-07-29T13:15:27;8.45;;;6.68;;
46084;SDS011;31823;47.032;8.310;2022-07-29T13:17:53;10.93;;;6.90;;
46084;SDS011;31823;47.032;8.310;2022-07-29T13:20:18;10.07;;;7.10;;
46084;SDS011;31823;47.032;8.310;2022-07-29T13:22:49;8.55;;;6.28;;
46084;SDS011;31823;47.032;8.310;2022-07-29T13:25:22;7.47;;;6.55;;
46084;SDS011;31823;47.032;8.310;2022-07-29T13:27:50;8.55;;;6.60;;
46084;SDS011;31823;47.032;8.310;2022-07-29T13:30:15;7.20;;;5.72;;
46084;SDS011;31823;47.032;8.310;2022-07-29T13:32:42;6.72;;;5.95;;
46084;SDS011;31823;47.032;8.310;2022-07-29T13:35:07;6.25;;;5.65;;
46084;SDS011;31823;47.032;8.310;2022-07-29T13:37:34;8.75;;;5.80;;
46084;SDS011;31823;47.032;8.310;2022-07-29T13:40:03;9.43;;;6.10;;
46084;SDS011;31823;47.032;8.310;2022-07-29T13:42:29;7.60;;;5.75;;
46084;SDS011;31823;47.032;8.310;2022-07-29T13:44:56;6.20;;;5.07;;
46084;SDS011;31823;47.032;8.310;2022-07-29T13:47:22;5.03;;;4.53;;
46084;SDS011;31823;47.032;8.310;2022-07-29T13:49:48;7.15;;;5.13;;
46084;SDS011;31823;47.032;8.310;2022-07-29T13:52:14;5.50;;;4.25;;
46084;SDS011;31823;47.032;8.310;2022-07-29T13:54:40;5.82;;;5.05;;
46084;SDS011;31823;47.032;8.310;2022-07-29T13:57:06;5.78;;;4.57;;
46084;SDS011;31823;47.032;8.310;2022-07-29T13:59:32;7.30;;;5.30;;
46084;SDS011;31823;47.032;8.310;2022-07-29T14:01:58;6.13;;;5.45;;
46084;SDS011;31823;47.032;8.310;2022-07-29T14:04:24;6.28;;;5.45;;
46084;SDS011;31823;47.032;8.310;2022-07-29T14:06:50;8.07;;;6.13;;
46084;SDS011;31823;47.032;8.310;2022-07-29T14:09:16;9.00;;;5.57;;
46084;SDS011;31823;47.032;8.310;2022-07-29T14:11:42;7.70;;;5.78;;
46084;SDS011;31823;47.032;8.310;2022-07-29T14:14:08;6.80;;;6.20;;
46084;SDS011;31823;47.032;8.310;2022-07-29T14:16:35;9.38;;;5.63;;
46084;SDS011;31823;47.032;8.310;2022-07-29T14:19:01;8.20;;;5.57;;
46084;SDS011;31823;47.032;8.310;2022-07-29T14:21:27;8.32;;;5.60;;
46084;SDS011;31823;47.032;8.310;2022-07-29T14:23:53;7.15;;;6.00;;
46084;SDS011;31823;47.032;8.310;2022-07-29T14:26:19;5.90;;;4.53;;
46084;SDS011;31823;47.032;8.310;2022-07-29T14:28:46;5.70;;;5.10;;
46084;SDS011;31823;47.032;8.310;2022-07-29T14:31:13;8.70;;;5.47;;
46084;SDS011;31823;47.032;8.310;2022-07-29T14:33:39;7.68;;;5.68;;
46084;SDS011;31823;47.032;8.310;2022-07-29T14:36:04;6.18;;;4.20;;
46084;SDS011;31823;47.032;8.310;2022-07-29T14:38:30;5.63;;;5.03;;
46084;SDS011;31823;47.032;8.310;2022-07-29T14:40:56;6.65;;;5.38;;
46084;SDS011;31823;47.032;8.310;2022-07-29T14:43:21;6.22;;;5.63;;
46084;SDS011;31823;47.032;8.310;2022-07-29T14:45:47;6.50;;;5.18;;
46084;SDS011;31823;47.032;8.310;2022-07-29T14:48:13;5.20;;;4.25;;
46084;SDS011;31823;47.032;8.310;2022-07-29T14:50:38;4.20;;;3.60;;
46084;SDS011;31823;47.032;8.310;2022-07-29T14:53:04;4.32;;;3.92;;
46084;SDS011;31823;47.032;8.310;2022-07-29T14:55:30;7.22;;;4.80;;
46084;SDS011;31823;47.032;8.310;2022-07-29T14:57:55;7.50;;;4.95;;
46084;SDS011;31823;47.032;8.310;2022-07-29T15:00:21;6.75;;;4.97;;
46084;SDS011;31823;47.032;8.310;2022-07-29T15:02:47;9.63;;;6.10;;
46084;SDS011;31823;47.032;8.310;2022-07-29T15:05:14;5.97;;;4.75;;
46084;SDS011;31823;47.032;8.310;2022-07-29T15:07:40;6.47;;;5.03;;
46084;SDS011;31823;47.032;8.310;2022-07-29T15:10:06;9.23;;;5.15;;
46084;SDS011;31823;47.032;8.310;2022-07-29T15:12:32;12.07;;;5.72;;
46084;SDS011;31823;47.032;8.310;2022-07-29T15:14:57;6.47;;;5.45;;
46084;SDS011;31823;47.032;8.310;2022-07-29T15:17:25;7.72;;;5.05;;
46084;SDS011;31823;47.032;8.310;2022-07-29T15:19:51;6.85;;;5.20;;
46084;SDS011;31823;47.032;8.310;2022-07-29T15:22:16;10.30;;;6.53;;
46084;SDS011;31823;47.032;8.310;2022-07-29T15:24:42;8.13;;;6.05;;
46084;SDS011;31823;47.032;8.310;2022-07-29T15:27:09;12.50;;;6.20;;
46084;SDS011;31823;47.032;8.310;2022-07-29T15:29:39;9.48;;;6.00;;
46084;SDS011;31823;47.032;8.310;2022-07-29T15:32:06;8.57;;;6.50;;
46084;SDS011;31823;47.032;8.310;2022-07-29T15:34:32;8.93;;;5.95;;
46084;SDS011;31823;47.032;8.310;2022-07-29T15:36:59;11.27;;;6.15;;
46084;SDS011;31823;47.032;8.310;2022-07-29T15:39:25;11.73;;;6.90;;
46084;SDS011;31823;47.032;8.310;2022-07-29T15:41:51;11.43;;;5.95;;
46084;SDS011;31823;47.032;8.310;2022-07-29T15:44:18;8.32;;;5.72;;
46084;SDS011;31823;47.032;8.310;2022-07-29T15:46:44;8.05;;;5.18;;